South Mason Valley, Nevada Weather observations

Data are for 10 minute period ending at time listed.
 Day   Time   Solar   Ave.   Ave.  Ave.  Vector  Max.   Baro.   Total    
  of    of     Rad.   Air    Rel.  Wind   Wind   Wind  Press.  Precip.   
Year   Day            Temp.  Hum.  Speed  Dir.   Gust                    
2014   (PST)  Kw/m2    F      %     mph   deg.    mph    mb.     in.     
-------------------------------------------------------------------------
 359    9:50   0.10   34.6    60    3.3   306     7.2   879.2    0.00 
 359   10:00   0.12   34.8    60    2.5   316     4.2   879.3    0.00 
 359   10:10   0.14   35.3    59    2.6   305     3.8   879.3    0.00 
 359   10:20   0.18   35.5    58    1.9   272     4.5   879.4    0.00 
 359   10:30   0.32   36.4    56    3.9   283     6.9   879.3    0.00 
 359   10:40   0.41   37.3    54    5.0   274     9.1   879.1    0.00 
 359   10:50   0.20   36.8    52    5.9   272    11.9   879.0    0.00 
 359   11:00   0.10   36.2    53    5.0   296     8.6   879.1    0.00 
 359   11:10   0.13   36.1    54    4.1   311     9.9   879.0    0.00 
 359   11:20   0.10   36.3    54    5.1   333    10.2   879.0    0.00 
 359   11:30   0.12   36.6    53    7.3   356    11.2   879.0    0.00 
 359   11:40   0.18   37.1    52    8.9   340    13.9   878.9    0.00 
 359   11:50   0.29   37.9    48   11.6   339    16.4   878.8    0.00 
 359   12:00   0.17   37.2    49   12.0   344    17.3   878.7    0.00 
 359   12:10   0.47   38.4    49   12.8   347    20.2   878.6    0.00 
 359   12:20   0.39   38.8    46   14.6   352    19.7   878.4    0.00 
 359   12:30   0.34   38.9    45   14.8   347    25.4   878.3    0.00 
 359   12:40   0.42   39.3    45   18.7   336    29.8   878.3    0.00 
 359   12:50   0.13   35.6    56   14.0   347    25.5   878.4    0.00 
 359   13:00   0.33   36.9    53   12.7   357    22.6   878.3    0.00 
 359   13:10   0.19   37.4    49   13.9   350    21.1   878.2    0.00 
 359   13:20   0.37   37.7    48   15.8   352    25.1   878.3    0.00 
 359   13:30   0.35   38.2    46   14.3   351    22.3   878.3    0.00 
 359   13:40   0.37   39.6    43   15.2   348    21.5   878.3    0.00 
 359   13:50   0.28   39.1    43   14.1   355    20.8   878.3    0.00 
 359   14:00   0.30   38.9    41   13.8     3    20.8   878.4    0.00 
 359   14:10   0.11   38.3    40   13.3   356    19.2   878.4    0.00 
 359   14:20   0.13   37.3    41   14.1   355    19.6   878.4    0.00 
 359   14:30   0.13   38.0    41   10.9   356    16.6   878.4    0.00 
 359   14:40   0.14   37.9    44   12.4   349    18.1   878.6    0.00 
 359   14:50   0.28   38.5    46   12.8   350    20.6   878.7    0.00 
 359   15:00   0.22   38.3    45   11.3   341    17.0   878.8    0.00 
 359   15:10   0.21   38.5    44   11.4   342    18.6   878.8    0.00 
 359   15:20   0.19   38.3    43   11.9   347    16.0   878.8    0.00 
 359   15:30   0.13   37.6    45   12.4   347    18.6   878.8    0.00 
 359   15:40   0.17   38.1    45   12.7   359    20.7   878.9    0.00 
 359   15:50   0.12   37.2    47   10.9   359    17.7   878.9    0.00 
 359   16:00   0.11   37.1    46   12.3   357    19.6   879.0    0.00 
 359   16:10   0.08   36.6    46   11.4   351    17.5   879.0    0.00 
 359   16:20   0.05   36.0    46   10.4   356    16.7   879.2    0.00 
 359   16:30   0.02   35.5    47   11.1   350    16.4   879.2    0.00 
 359   16:40   0.01   35.3    48   10.8   353    18.6   879.2    0.00 
 359   16:50   0.00   35.1    49   10.2   355    15.0   879.3    0.00 
 359   17:00   0.00   34.3    51    8.2   353    12.1   879.3    0.00 
 359   17:10   0.00   33.4    53    7.0   343     9.9   879.4    0.00 
 359   17:20   0.00   31.5    58    5.9   325     8.5   879.4    0.00 
 359   17:30   0.00   30.5    61    5.7   327     7.4   879.5    0.00 
 359   17:40   0.00   30.2    64    5.4   326     7.7   879.7    0.00 
 359   17:50   0.00   30.8    63    5.8   327     8.2   879.7    0.00 
 359   18:00   0.00   30.6    64    6.2   328     8.3   879.7    0.00 
 359   18:10   0.00   30.5    64    6.5   326     8.6   879.7    0.00 
 359   18:20   0.00   29.9    65    6.6   326     9.1   879.8    0.00 
 359   18:30   0.00   29.3    66    6.5   327     8.9   879.9    0.00 
 359   18:40   0.00   28.7    66    5.5   331     7.5   880.0    0.00 
 359   18:50   0.00   27.8    69    6.4   328    10.4   880.2    0.00 
 359   19:00   0.00   27.9    69    6.8   327     8.9   880.2    0.00 
 359   19:10   0.00   28.1    67    7.4   325    10.4   880.3    0.00 
 359   19:20   0.00   27.6    68    5.8   326     7.5   880.3    0.00 
 359   19:30   0.00   26.9    69    4.7   326     6.8   880.3    0.00 
 359   19:40   0.00   26.8    69    3.8   316     5.8   880.3    0.00 
 359   19:50   0.00   26.7    68    2.2   301     4.1   880.3    0.00 
 359   20:00   0.00   26.1    68    1.7   262     2.4   880.4    0.00 
 359   20:10   0.00   24.4    69    1.7   230     2.1   880.5    0.00 
 359   20:20   0.00   24.8    72    2.8   289     4.0   880.5    0.00 
 359   20:30   0.00   24.4    70    3.0   287     3.9   880.6    0.00 
 359   20:40   0.00   23.2    74    3.4   281     3.9   880.7    0.00 
 359   20:50   0.00   23.8    73    3.9   287     4.7   880.7    0.00 
 359   21:00   0.00   22.7    73    4.0   290     5.0   880.8    0.00 
 359   21:10   0.00   22.8    74    4.2   311     6.0   880.8    0.00 
 359   21:20   0.00   23.8    72    3.0   291     4.7   880.8    0.00 
 359   21:30   0.00   23.9    70    1.4   319     3.2   881.0    0.00 
 359   21:40   0.00   23.1    71    0.0     0     0.0   881.1    0.00 
 359   21:50   0.00   23.6    73    1.9   335     3.3   881.1    0.00 
 359   22:00   0.00   23.8    70    4.0   341     5.3   881.1    0.00 
 359   22:10   0.00   21.1    75    4.2   336     5.2   881.1    0.00 
 359   22:20   0.00   22.9    73    2.8   328     4.7   881.1    0.00 
 359   22:30   0.00   21.6    72    2.4   116     4.3   881.1    0.00 
 359   22:40   0.00   19.5    77    3.5   111     6.1   881.1    0.00 
 359   22:50   0.00   19.1    79    1.5   241     3.1   881.1    0.00 
 359   23:00   0.00   19.1    79    1.5   215     3.5   881.2    0.00 
 359   23:10   0.00   19.2    80    1.2   212     3.7   881.2    0.00 
 359   23:20   0.00   18.7    79    2.8   211     5.4   881.2    0.00 
 359   23:30   0.00   17.2    81    1.4   160     3.4   881.1    0.00 
 359   23:40   0.00   17.3    83    2.2   287     5.5   880.9    0.00 
 359   23:50   0.00   17.6    81    2.1   275     4.0   880.9    0.00 
 360    0:00   0.00   15.7    81    0.3   273     1.2   880.9    0.00 
 360    0:10   0.00   16.4    84    1.6   282     2.9   880.9    0.00 
 360    0:20   0.00   18.7    84    4.4   275     7.2   880.9    0.00 
 360    0:30   0.00   19.6    78    4.6   283     5.6   880.9    0.00 
 360    0:40   0.00   17.4    81    4.3   295     5.2   881.0    0.00 
 360    0:50   0.00   18.4    82    4.7   297     5.7   881.1    0.00 
 360    1:00   0.00   18.6    82    4.5   301     5.3   881.1    0.00 
 360    1:10   0.00   18.6    82    4.6   308     5.4   881.2    0.00 
 360    1:20   0.00   19.0    82    3.5   320     5.4   881.2    0.00 
 360    1:30   0.00   19.0    83    3.3   333     4.5   881.2    0.00 
 360    1:40   0.00   18.6    81    3.4   321     4.1   881.3    0.00 
 360    1:50   0.00   17.4    82    1.5   272     2.8   881.4    0.00 
 360    2:00   0.00   15.9    84    3.9   254     5.3   881.4    0.00 
 360    2:10   0.00   17.4    84    5.0   287     5.9   881.4    0.00 
 360    2:20   0.00   15.5    84    2.6   315     5.0   881.4    0.00 
 360    2:30   0.00   15.7    84    0.8   220     2.1   881.6    0.00 
 360    2:40   0.00   15.8    86    0.7   147     2.3   881.9    0.00 
 360    2:50   0.00   17.7    87    1.0   145     2.4   881.9    0.00 
 360    3:00   0.00   18.0    84    3.0   332     3.9   882.0    0.00 
 360    3:10   0.00   18.2    84    1.0   315     2.9   882.2    0.00 
 360    3:20   0.00   17.0    83    0.2   271     2.6   882.4    0.00 
 360    3:30   0.00   17.2    86    3.1   266     4.7   882.3    0.00 
 360    3:40   0.00   18.1    81    4.0   318     5.0   882.1    0.00 
 360    3:50   0.00   18.5    84    3.5   326     4.8   882.0    0.00 
 360    4:00   0.00   20.4    81    1.8   290     3.0   882.0    0.00 
 360    4:10   0.00   16.1    79    3.5   182     4.8   882.1    0.00 
 360    4:20   0.00   15.7    85    2.9   236     3.9   882.1    0.00 
 360    4:30   0.00   18.5    85    2.0   262     3.5   882.1    0.00 
 360    4:40   0.00   17.1    82    1.2   176     2.9   882.3    0.00 
 360    4:50   0.00   15.4    84    2.9   156     4.2   882.3    0.00 
 360    5:00   0.00   15.2    85    1.5   179     2.3   882.3    0.00 
 360    5:10   0.00   15.8    85    1.4   153     2.6   882.3    0.00 
 360    5:20   0.00   14.5    85    2.9   191     3.7   882.5    0.00 
 360    5:30   0.00   14.0    86    1.7   191     2.4   882.5    0.00 
 360    5:40   0.00   13.8    86    1.9   174     2.8   882.6    0.00 
 360    5:50   0.00   14.0    87    1.0   192     1.8   882.8    0.00 
 360    6:00   0.00   15.2    88    0.6   278     2.6   882.9    0.00 
 360    6:10   0.00   14.9    86    1.5   272     2.9   883.0    0.00 
 360    6:20   0.00   13.7    87    0.7   263     1.4   883.1    0.00 
 360    6:30   0.00   14.0    87    0.2   263     1.5   883.3    0.00 
 360    6:40   0.00   14.7    88    1.7    56     4.8   883.6    0.00 
 360    6:50   0.00   16.2    89    0.4    63     1.4   883.6    0.00 
 360    7:00   0.00   16.9    88    0.0     0     0.0   883.6    0.00 
 360    7:10   0.00   17.8    88    0.1    63     1.2   883.8    0.00 
 360    7:20   0.00   18.1    88    0.8   179     1.8   883.9    0.00 
 360    7:30   0.01   18.3    88    0.7   199     2.8   883.9    0.00 
 360    7:40   0.05   18.3    87    2.1   114     5.0   883.9    0.00 
 360    7:50   0.07   18.7    86    2.3   203     3.7   883.8    0.00 
 360    8:00   0.09   19.9    85    2.2   177     3.3   883.9    0.00 
 360    8:10   0.12   21.5    83    1.5   199     2.3   884.1    0.00 
 360    8:20   0.14   23.9    82    1.6   192     2.4   884.2    0.00 
 360    8:30   0.21   26.1    79    1.7   236     3.5   884.2    0.00 
 360    8:40   0.19   26.5    77    3.6   227     5.4   884.3    0.00 
 360    8:50   0.13   26.0    77    2.9   234     4.8   884.5    0.00 
 360    9:00   0.12   26.2    77    2.4   233     4.3   884.6    0.00 
 360    9:10   0.09   26.5    76    2.3   225     4.2   884.6    0.00 
 360    9:20   0.20   26.9    77    2.4   217     3.5   884.6    0.00 
 360    9:30   0.27   29.4    72    2.6   242     4.3   884.7    0.00 
 360    9:40   0.25   30.4    70    2.7   279     6.0   884.9    0.00 

Return to south Mason Valley graphs page.


Western Regional Climate Center,wrcc@dri.edu